Weather observations for the past three days for
Northeast Florida Regional Airport
Metric (Imperial)
Date Time (edt) Wind (kph) Vis. (km) Weather Sky Cond. Temperature (ºC) Relative Humidity Wind Chill (°C) Heat Index (°C) Pressure Precipitation (cm)
Air Dwpt 6 hour altimeter (cm) sea level (mb) 1 hr 3 hr 6 hr
Max. Min.
06 01:56 SW 7 16.09 Fair CLR 18.3 14.4 22.2 18.3 78% 76.3 1017.1
06 00:56 SW 6 16.09 Fair CLR 18.3 14.4 78% 76.3 1017.3
05 23:56 Calm 16.09 Fair CLR 19.4 15 76% 76.33 1017.5
05 22:56 S 9 16.09 Fair CLR 21.7 15.6 68% 76.28 1016.8
05 21:56 SE 15 16.09 Fair CLR 21.7 15.6 68% 76.25 1016.7
05 20:56 SE 11 16.09 Fair CLR 21.7 14.4 63% 76.25 1016.5
05 19:56 SE 17 16.09 Fair CLR 22.2 13.9 25.6 22.2 59% 76.23 1016.2
05 18:56 SE 22 16.09 Fair CLR 23.9 13.9 54% 25 76.23 1016.1
05 17:56 E 22 16.09 Fair CLR 24.4 14.4 54% 26 76.23 1016.3
05 16:56 E 20 16.09 Fair CLR 25 13.9 50% 26 76.23 1016.3
05 15:56 SE 20 16.09 Fair CLR 25 15 54% 26 76.28 1016.9
05 14:56 E 17 16.09 Fair CLR 25 14.4 52% 26 76.33 1017.5
05 13:56 E 19 16.09 Fair CLR 25 14.4 25 18.3 52% 26 76.35 1017.9
05 12:56 E 17 16.09 Fair CLR 24.4 15 56% 26 76.38 1018.3
05 11:56 E 13 16.09 Fair CLR 24.4 14.4 54% 26 76.38 1018.4
05 10:56 E 13 16.09 Fair CLR 24.4 14.4 54% 26 76.38 1018.2
05 09:56 E 15 16.09 Fair CLR 23.9 15.6 60% 25 76.35 1017.8
05 08:56 Vrbl 11 16.09 Fair CLR 23.3 15 60% 76.33 1017.6
05 07:56 Calm 16.09 Fair CLR 18.3 15 20 15 81% 76.3 1017.1
05 06:56 Calm 16.09 Fair CLR 15.6 13.3 86% 76.25 1016.7
05 05:56 Calm 16.09 Fair CLR 15.6 13.3 86% 76.23 1016.3
05 04:56 Calm 16.09 Fair CLR 16.1 13.3 84% 76.2 1016.0
05 03:56 Calm 16.09 Fair CLR 16.1 13.3 84% 76.2 1015.9
05 02:56 SE 6 16.09 Fair CLR 19.4 14.4 73% 76.23 1016.1
05 01:56 SE 9 16.09 Fair CLR 20 13.9 21.7 20 68% 76.25 1016.5
05 00:56 SE 13 16.09 Fair CLR 20.6 13.3 63% 76.3 1017.3
04 23:56 E 20 16.09 Fair CLR 21.1 12.8 59% 76.33 1017.4
04 22:56 SE 22 16.09 Fair CLR 21.1 13.3 61% 76.33 1017.5
04 21:56 E 20 16.09 Fair CLR 21.1 13.3 61% 76.33 1017.6
04 20:56 E 22 16.09 Fair CLR 21.1 13.9 64% 76.3 1017.2
04 19:56 E 19 16.09 Fair CLR 21.7 13.9 24.4 21.7 61% 76.28 1016.8
04 18:56 SE 20 16.09 Fair CLR 22.8 13.3 55% 76.25 1016.4
04 17:56 SE 24 16.09 Fair CLR 23.9 13.3 52% 25 76.25 1016.6
04 16:56 SE 26 16.09 Mostly Cloudy BKN039 23.9 14.4 55% 25 76.28 1017.0
04 15:56 E 17 16.09 Fair CLR 23.9 13.9 54% 25 76.3 1017.2
04 14:56 NE 17 16.09 Fair CLR 23.9 12.8 50% 25 76.35 1018.0
04 13:56 E 17 16.09 A Few Clouds FEW050 23.9 12.2 23.9 18.3 48% 25 76.38 1018.3
04 12:56 E 17 16.09 A Few Clouds FEW050 23.9 12.2 48% 25 76.43 1019.0
04 11:56 NE 17 16.09 Fair CLR 23.9 12.2 48% 25 76.45 1019.3
04 10:56 NE 19 16.09 Fair CLR 23.3 11.1 46% 76.45 1019.2
04 09:56 N 17 16.09 Fair CLR 22.8 10 44% 76.43 1019.0
04 08:56 NE 17 16.09 Fair CLR 22.2 12.2 53% 76.43 1018.8
04 07:56 NW 6 16.09 Fair CLR 18.3 14.4 19.4 15 78% 76.4 1018.5
04 06:56 NW 6 16.09 Fair CLR 15 12.8 87% 76.35 1018.0
04 05:56 NW 7 16.09 Fair CLR 16.7 13.9 84% 76.33 1017.7
04 04:56 NW 6 16.09 Fair CLR 16.7 13.9 84% 76.35 1017.8
04 03:56 NE 9 16.09 Fair CLR 18.9 14.4 75% 76.35 1017.8
04 02:56 NE 11 16.09 Fair CLR 18.9 14.4 75% 76.35 1017.9
04 01:56 NE 13 16.09 Fair CLR 19.4 15 20.6 19.4 76% 76.4 1018.7
04 00:56 NE 15 16.09 Fair CLR 20 15 73% 76.43 1019.1
03 23:56 NE 20 16.09 Fair CLR 20.6 14.4 68% 76.43 1018.9
03 22:56 NE 22 16.09 Fair CLR 20.6 13.9 66% 76.45 1019.1
03 21:56 NE 22 16.09 Fair CLR 20.6 12.8 61% 76.4 1018.7
03 20:56 NE 19 16.09 Fair CLR 20 12.2 61% 76.38 1018.2
03 19:56 NE 17 16.09 Fair CLR 20 11.7 22.8 20 59% 76.38 1018.3
03 18:56 NE 15 16.09 Fair CLR 21.1 12.2 57% 76.38 1018.2
03 17:56 NE 15 16.09 Fair CLR 21.7 11.7 53% 76.35 1017.9
03 16:56 NE 17 16.09 Fair CLR 22.2 12.2 53% 76.35 1018.1
03 15:56 NE 15 16.09 Fair CLR 22.2 11.1 50% 76.4 1018.6
03 14:56 NE 20 G 28 16.09 Fair CLR 21.7 12.2 55% 76.48 1019.5
03 13:56 NE 20 G 28 16.09 A Few Clouds FEW031 22.2 13.3 22.2 15.6 57% 76.48 1019.7
03 12:56 NE 20 16.09 Fair CLR 21.1 13.3 61% 76.53 1020.2
03 11:56 NE 19 16.09 Fair CLR 20.6 13.3 63% 76.53 1020.2
03 10:56 N 22 16.09 Mostly Cloudy BKN020 20.6 13.3 63% 76.5 1020.1
03 09:56 N 22 16.09 Mostly Cloudy BKN020 19.4 15 76% 76.45 1019.4
03 08:56 N 20 16.09 Fair CLR 17.8 15 84% 76.43 1018.8
03 07:56 NW 15 16.09 Fair CLR 15.6 14.4 15.6 14.4 93% 76.38 1018.4
03 06:56 NW 15 16.09 Fair CLR 15 14.4 96% 76.35 1017.8
03 05:56 NW 17 16.09 Overcast OVC003 15 15 100% 76.3 1017.2
03 04:56 NW 15 11.27 Mostly Cloudy BKN005 15 14.4 96% 76.28 1016.8
03 03:56 NW 13 16.09 Fair CLR 15 14.4 96% 76.25 1016.4
03 02:56 NW 9 16.09 Fair CLR 15 14.4 96% 76.23 1016.2
Date Time (edt) Wind (kph) Vis. (km) Weather Sky Cond. Air Dwpt Max. Min. Relative Humidity Wind Chill (°C) Heat Index (°C) altimeter (cm) sea level (mb) 1 hr 3 hr 6 hr
6 hour
Temperature (ºC) Pressure Precipitation (cm)